createdAt,value
2023-04-18T00:00:45.503Z,15.73
2023-04-18T00:03:16.061Z,15.80
2023-04-18T00:05:47.994Z,14.10
2023-04-18T00:08:17.846Z,12.67
2023-04-18T00:10:46.445Z,16.00
2023-04-18T00:13:18.448Z,15.30
2023-04-18T00:15:46.904Z,17.07
2023-04-18T00:18:17.248Z,16.87
2023-04-18T00:20:46.195Z,14.63
2023-04-18T00:23:15.169Z,16.23
2023-04-18T00:25:44.901Z,20.67
2023-04-18T00:28:13.252Z,16.97
2023-04-18T00:30:41.522Z,15.93
2023-04-18T00:33:10.319Z,20.17
2023-04-18T00:35:39.302Z,14.53
2023-04-18T00:38:09.420Z,15.83
2023-04-18T00:40:38.399Z,15.00
2023-04-18T00:43:10.278Z,15.57
2023-04-18T00:45:42.271Z,19.03
2023-04-18T00:48:12.691Z,18.67
2023-04-18T00:50:42.062Z,16.07
2023-04-18T00:53:11.247Z,17.47
2023-04-18T00:55:40.761Z,13.10
2023-04-18T00:58:11.269Z,14.60
2023-04-18T01:00:39.927Z,18.83
2023-04-18T01:03:10.827Z,14.50
2023-04-18T01:05:39.915Z,16.60
2023-04-18T01:08:09.011Z,18.43
2023-04-18T01:10:38.063Z,19.00
2023-04-18T01:13:15.247Z,17.87
2023-04-18T01:15:44.350Z,21.50
2023-04-18T01:18:14.121Z,14.07
2023-04-18T01:20:47.398Z,22.17
2023-04-18T01:23:16.125Z,14.80
2023-04-18T01:25:46.485Z,16.77
2023-04-18T01:28:16.129Z,16.47
2023-04-18T01:30:44.468Z,15.80
2023-04-18T01:33:13.295Z,13.33
2023-04-18T01:35:42.212Z,19.37
2023-04-18T01:38:11.877Z,22.47
2023-04-18T01:40:40.629Z,13.17
2023-04-18T01:43:10.679Z,15.73
2023-04-18T01:45:39.681Z,15.17
2023-04-18T01:48:10.633Z,17.13
2023-04-18T01:50:39.481Z,12.80
2023-04-18T01:53:07.879Z,19.87
2023-04-18T01:55:36.863Z,18.53
2023-04-18T01:58:05.415Z,15.40
2023-04-18T02:00:35.422Z,16.13
2023-04-18T02:03:03.973Z,18.47
2023-04-18T02:05:32.517Z,15.17
2023-04-18T02:08:01.106Z,13.33
2023-04-18T02:10:29.484Z,17.27
2023-04-18T02:12:57.832Z,18.23
2023-04-18T02:15:27.190Z,15.17
2023-04-18T02:17:57.027Z,18.37
2023-04-18T02:20:26.335Z,17.10
2023-04-18T02:22:55.179Z,20.37
2023-04-18T02:25:23.802Z,14.53
2023-04-18T02:27:52.305Z,14.03
2023-04-18T02:30:20.803Z,14.10
2023-04-18T02:32:49.255Z,17.57
2023-04-18T02:35:19.356Z,14.93
2023-04-18T02:37:50.160Z,17.57
2023-04-18T02:40:20.142Z,19.73
2023-04-18T02:42:48.666Z,13.77
2023-04-18T02:45:17.046Z,16.37
2023-04-18T02:47:54.704Z,18.33
2023-04-18T02:50:27.305Z,19.23
2023-04-18T02:52:57.323Z,15.80
2023-04-18T02:55:32.611Z,16.70
2023-04-18T02:58:02.066Z,17.43
2023-04-18T03:00:50.662Z,13.80
2023-04-18T03:03:37.901Z,13.93
2023-04-18T03:06:24.923Z,15.47
2023-04-18T03:08:54.217Z,13.60
2023-04-18T03:11:23.392Z,14.17
2023-04-18T03:13:51.855Z,15.13
2023-04-18T03:16:23.359Z,16.23
2023-04-18T03:18:52.163Z,13.57
2023-04-18T03:21:24.439Z,17.67
2023-04-18T03:23:53.369Z,16.30
2023-04-18T03:26:26.010Z,14.20
2023-04-18T03:28:55.690Z,14.60
2023-04-18T03:31:24.260Z,16.30
2023-04-18T03:33:52.797Z,12.43
2023-04-18T03:36:25.439Z,11.60
2023-04-18T03:38:57.469Z,13.07
2023-04-18T03:41:26.572Z,12.70
2023-04-18T03:43:56.437Z,12.20
2023-04-18T03:46:25.325Z,15.27
2023-04-18T03:48:56.453Z,14.30
2023-04-18T03:51:25.083Z,12.60
2023-04-18T03:53:53.624Z,13.70
2023-04-18T03:56:23.433Z,10.70
2023-04-18T03:58:53.920Z,12.40
2023-04-18T04:01:23.738Z,16.33
2023-04-18T04:03:54.083Z,11.27
2023-04-18T04:06:23.326Z,12.33
2023-04-18T04:08:51.794Z,12.83
2023-04-18T04:11:26.255Z,12.53
2023-04-18T04:13:54.639Z,12.47
2023-04-18T04:16:29.443Z,15.57
2023-04-18T04:19:01.253Z,12.07
2023-04-18T04:21:36.991Z,10.33
2023-04-18T04:24:07.082Z,8.93
2023-04-18T04:26:44.098Z,12.67
2023-04-18T04:29:19.320Z,13.30
2023-04-18T04:31:49.454Z,12.97
2023-04-18T04:34:27.254Z,11.60
2023-04-18T04:36:56.315Z,9.57
2023-04-18T04:39:26.410Z,12.00
2023-04-18T04:42:28.645Z,13.57
2023-04-18T04:45:10.719Z,10.30
2023-04-18T04:47:39.240Z,10.57
2023-04-18T04:50:14.871Z,11.27
2023-04-18T04:52:43.434Z,10.97
2023-04-18T04:55:12.079Z,10.83
2023-04-18T04:57:44.837Z,13.57
2023-04-18T05:00:33.533Z,13.80
2023-04-18T05:03:02.344Z,16.07
2023-04-18T05:05:31.633Z,13.03
2023-04-18T05:08:00.196Z,11.43
2023-04-18T05:10:28.803Z,16.30
2023-04-18T05:12:58.561Z,11.87
2023-04-18T05:15:27.064Z,12.27
2023-04-18T05:17:55.485Z,14.93
2023-04-18T05:20:24.088Z,12.40
2023-04-18T05:22:52.603Z,11.67
2023-04-18T05:25:21.347Z,13.87
2023-04-18T05:27:49.790Z,13.17
2023-04-18T05:30:19.889Z,13.57
2023-04-18T05:32:48.298Z,12.87
2023-04-18T05:35:16.897Z,12.73
2023-04-18T05:37:46.116Z,12.47
2023-04-18T05:40:15.409Z,18.50
2023-04-18T05:42:43.891Z,12.40
2023-04-18T05:45:13.076Z,12.60
2023-04-18T05:47:43.022Z,11.53
2023-04-18T05:50:11.871Z,15.20
2023-04-18T05:52:40.426Z,13.50
2023-04-18T05:55:09.443Z,15.87
2023-04-18T05:57:37.922Z,11.40
2023-04-18T06:00:10.228Z,20.93
2023-04-18T06:02:42.967Z,15.97
2023-04-18T06:05:12.175Z,18.53
2023-04-18T06:07:40.749Z,16.63
2023-04-18T06:10:13.494Z,14.07
2023-04-18T06:12:42.312Z,20.17
2023-04-18T06:15:12.240Z,14.30
2023-04-18T06:17:42.864Z,14.27
2023-04-18T06:20:12.202Z,13.70
2023-04-18T06:22:40.996Z,13.87
2023-04-18T06:25:10.846Z,15.30
2023-04-18T06:27:39.572Z,14.40
2023-04-18T06:30:09.098Z,15.67
2023-04-18T06:32:37.765Z,14.07
2023-04-18T06:35:08.390Z,13.20
2023-04-18T06:37:36.873Z,14.83
2023-04-18T06:40:05.860Z,14.20
2023-04-18T06:42:34.325Z,15.70
2023-04-18T06:45:03.689Z,15.57
2023-04-18T06:47:32.404Z,15.43
2023-04-18T06:50:00.951Z,15.43
2023-04-18T06:52:30.919Z,17.33
2023-04-18T06:54:59.614Z,14.90
2023-04-18T06:57:28.359Z,16.30
2023-04-18T06:59:56.753Z,16.53
2023-04-18T07:02:25.417Z,15.70
2023-04-18T07:04:54.123Z,15.33
2023-04-18T07:07:22.697Z,15.13
2023-04-18T07:09:52.896Z,15.87
2023-04-18T07:12:21.369Z,18.83
2023-04-18T07:14:49.828Z,15.80
2023-04-18T07:17:18.419Z,17.63
2023-04-18T07:19:46.878Z,13.10
2023-04-18T07:22:15.396Z,13.67
2023-04-18T07:24:44.209Z,13.93
2023-04-18T07:27:14.197Z,15.17
2023-04-18T07:29:42.644Z,14.63
2023-04-18T07:32:11.725Z,13.00
2023-04-18T07:34:40.487Z,13.30
2023-04-18T07:37:09.312Z,15.57
2023-04-18T07:39:37.815Z,13.33
2023-04-18T07:42:06.525Z,15.37
2023-04-18T07:44:37.957Z,13.17
2023-04-18T07:47:11.261Z,13.03
2023-04-18T07:49:40.141Z,12.67
2023-04-18T07:52:08.660Z,13.00
2023-04-18T07:54:37.118Z,12.17
2023-04-18T07:57:05.696Z,15.63
2023-04-18T07:59:34.204Z,15.97
2023-04-18T08:02:04.689Z,11.43
2023-04-18T08:04:33.315Z,15.27
2023-04-18T08:07:01.917Z,12.87
2023-04-18T08:09:30.832Z,13.80
2023-04-18T08:12:00.387Z,14.50
2023-04-18T08:14:29.010Z,15.10
2023-04-18T08:16:57.676Z,16.07
2023-04-18T08:19:27.832Z,19.30
2023-04-18T08:22:08.095Z,15.40
2023-04-18T08:24:36.537Z,19.43
2023-04-18T08:27:05.221Z,15.17
2023-04-18T08:29:34.130Z,13.37
2023-04-18T08:32:03.025Z,14.27
2023-04-18T08:34:38.190Z,15.20
2023-04-18T08:37:07.388Z,16.33
2023-04-18T08:39:36.381Z,13.63
2023-04-18T08:42:07.255Z,13.53
2023-04-18T08:44:37.523Z,11.57
2023-04-18T08:47:09.101Z,13.97
2023-04-18T08:49:38.891Z,16.07
2023-04-18T08:52:12.504Z,12.77
2023-04-18T08:54:43.228Z,16.20
2023-04-18T08:57:14.132Z,20.57
2023-04-18T08:59:46.342Z,17.80
2023-04-18T09:02:16.683Z,17.33
2023-04-18T09:04:49.665Z,18.63
2023-04-18T09:07:18.980Z,21.23
2023-04-18T09:09:49.221Z,18.17
2023-04-18T09:12:19.725Z,19.07
2023-04-18T09:14:50.275Z,20.40
2023-04-18T09:17:33.533Z,18.00
2023-04-18T09:20:06.437Z,17.10
2023-04-18T09:22:47.311Z,16.47
2023-04-18T09:25:27.375Z,16.47
2023-04-18T09:27:57.371Z,22.63
2023-04-18T09:30:34.366Z,14.23
2023-04-18T09:33:06.229Z,14.97
2023-04-18T09:35:37.013Z,15.60
2023-04-18T09:38:06.029Z,15.57
2023-04-18T09:40:34.513Z,17.23
2023-04-18T09:43:19.369Z,15.80
2023-04-18T09:45:49.192Z,15.90
2023-04-18T09:48:17.615Z,15.03
2023-04-18T09:50:48.722Z,16.67
2023-04-18T09:53:21.106Z,16.73
2023-04-18T09:55:52.890Z,16.17
2023-04-18T09:58:23.593Z,16.63
2023-04-18T10:00:54.450Z,16.30
2023-04-18T10:03:29.893Z,19.23
2023-04-18T10:05:59.965Z,17.10
2023-04-18T10:08:28.736Z,17.30
2023-04-18T10:10:58.871Z,16.33
2023-04-18T10:13:29.356Z,19.43
2023-04-18T10:15:58.669Z,15.77
2023-04-18T10:18:27.157Z,20.23
2023-04-18T10:21:04.489Z,16.30
2023-04-18T10:23:37.828Z,16.40
2023-04-18T10:26:06.604Z,15.90
2023-04-18T10:28:55.193Z,16.00
2023-04-18T10:31:24.722Z,20.60
2023-04-18T10:34:04.669Z,18.43
2023-04-18T10:36:36.179Z,20.03
2023-04-18T10:39:22.452Z,18.33
2023-04-18T10:41:51.972Z,19.07
2023-04-18T10:44:22.729Z,17.80
2023-04-18T10:47:24.951Z,17.30
2023-04-18T10:50:01.480Z,18.73
2023-04-18T10:52:32.278Z,16.93
2023-04-18T10:55:18.599Z,17.07
2023-04-18T10:57:48.924Z,17.27
2023-04-18T11:00:20.689Z,21.00
2023-04-18T11:02:51.398Z,18.00
2023-04-18T11:05:22.993Z,19.07
2023-04-18T11:07:53.065Z,16.77
2023-04-18T11:10:23.086Z,18.03
2023-04-18T11:12:51.948Z,18.07
2023-04-18T11:15:22.939Z,18.07
2023-04-18T11:18:00.537Z,17.23
2023-04-18T11:20:30.516Z,18.10
2023-04-18T11:23:01.483Z,16.83
2023-04-18T11:25:31.985Z,17.40
2023-04-18T11:28:02.255Z,16.73
2023-04-18T11:30:38.521Z,18.37
2023-04-18T11:33:08.636Z,18.77
2023-04-18T11:35:41.276Z,18.53
2023-04-18T11:38:13.810Z,22.03
2023-04-18T11:40:50.138Z,18.90
2023-04-18T11:43:22.248Z,20.47
2023-04-18T11:45:55.358Z,18.43
2023-04-18T11:48:24.169Z,20.70
2023-04-18T11:50:52.774Z,19.63
2023-04-18T11:53:35.629Z,19.97
2023-04-18T11:56:04.808Z,21.00
2023-04-18T11:58:34.353Z,23.17
2023-04-18T12:01:17.381Z,22.10
2023-04-18T12:04:00.865Z,20.40
2023-04-18T12:06:29.755Z,20.43
2023-04-18T12:09:02.414Z,22.20
2023-04-18T12:11:30.858Z,22.73
2023-04-18T12:13:59.253Z,20.37
2023-04-18T12:16:29.476Z,21.80
2023-04-18T12:19:01.644Z,20.77
2023-04-18T12:21:33.155Z,20.97
2023-04-18T12:24:15.413Z,20.90
2023-04-18T12:26:46.915Z,19.70
2023-04-18T12:29:15.413Z,22.50
2023-04-18T12:31:43.954Z,20.00
2023-04-18T12:34:12.768Z,19.60
2023-04-18T12:36:42.208Z,19.33
2023-04-18T12:39:12.224Z,19.20
2023-04-18T12:41:40.675Z,17.47
2023-04-18T12:44:09.458Z,19.40
2023-04-18T12:46:37.951Z,18.77
2023-04-18T12:49:06.445Z,18.10
2023-04-18T12:51:34.927Z,17.63
2023-04-18T12:54:03.583Z,20.20
2023-04-18T12:56:34.516Z,20.50
2023-04-18T12:59:03.122Z,20.17
2023-04-18T13:01:31.949Z,20.73
2023-04-18T13:04:11.637Z,19.37
2023-04-18T13:06:41.713Z,20.47
2023-04-18T13:09:10.561Z,18.53
2023-04-18T13:11:40.771Z,16.90
2023-04-18T13:14:09.486Z,15.90
2023-04-18T13:16:38.028Z,17.33
2023-04-18T13:19:06.518Z,18.97
2023-04-18T13:21:35.114Z,18.63
2023-04-18T13:24:03.538Z,20.17
2023-04-18T13:26:35.606Z,20.67
2023-04-18T13:29:06.112Z,20.80
2023-04-18T13:31:34.548Z,20.03
2023-04-18T13:34:03.091Z,19.00
2023-04-18T13:36:34.836Z,17.37
2023-04-18T13:39:05.690Z,18.47
2023-04-18T13:41:35.446Z,19.23
2023-04-18T13:44:05.577Z,19.70
2023-04-18T13:46:34.059Z,22.57
2023-04-18T13:49:02.619Z,18.63
2023-04-18T13:51:31.736Z,18.50
2023-04-18T13:54:01.257Z,21.87
2023-04-18T13:56:30.222Z,21.03
2023-04-18T13:58:58.865Z,23.70
2023-04-18T14:01:29.200Z,23.93
2023-04-18T14:03:57.869Z,23.07
2023-04-18T14:06:27.827Z,20.23
2023-04-18T14:08:56.399Z,24.63
2023-04-18T14:11:24.991Z,20.27
2023-04-18T14:13:53.528Z,22.23
2023-04-18T14:16:22.308Z,21.87
2023-04-18T14:18:53.914Z,19.37
2023-04-18T14:21:22.664Z,24.77
2023-04-18T14:23:53.158Z,27.23
2023-04-18T14:26:22.291Z,27.90
2023-04-18T14:28:50.788Z,24.73
2023-04-18T14:31:19.198Z,24.00
2023-04-18T14:33:47.760Z,21.53
2023-04-18T14:36:17.607Z,26.70
2023-04-18T14:38:48.717Z,22.00
2023-04-18T14:41:17.358Z,25.20
2023-04-18T14:43:46.132Z,21.00
2023-04-18T14:46:16.577Z,19.77
2023-04-18T14:48:46.339Z,18.40
2023-04-18T14:51:17.700Z,18.83
2023-04-18T14:53:46.750Z,23.97
2023-04-18T14:56:16.204Z,21.40
2023-04-18T14:58:44.769Z,21.63
2023-04-18T15:01:13.159Z,23.93
2023-04-18T15:03:41.720Z,20.97
2023-04-18T15:06:10.526Z,20.33
2023-04-18T15:08:40.724Z,21.53
2023-04-18T15:11:09.567Z,21.10
2023-04-18T15:13:38.365Z,23.77
2023-04-18T15:16:07.851Z,22.40
2023-04-18T15:18:36.362Z,20.83
2023-04-18T15:21:05.041Z,21.97
2023-04-18T15:23:34.276Z,21.83
2023-04-18T15:26:04.359Z,22.60
2023-04-18T15:28:32.966Z,20.70
2023-04-18T15:31:01.773Z,20.50
2023-04-18T15:33:30.352Z,19.23
2023-04-18T15:35:58.856Z,19.07
2023-04-18T15:38:27.535Z,19.57
2023-04-18T15:40:56.018Z,18.43
2023-04-18T15:43:25.923Z,18.43
2023-04-18T15:45:54.561Z,19.87
2023-04-18T15:48:23.213Z,21.43
2023-04-18T15:50:52.501Z,20.60
2023-04-18T15:53:21.073Z,22.47
2023-04-18T15:55:49.431Z,23.93
2023-04-18T15:58:17.866Z,23.87
2023-04-18T16:00:47.830Z,24.63
2023-04-18T16:03:16.506Z,22.53
2023-04-18T16:05:45.123Z,21.63
2023-04-18T16:08:13.613Z,20.93
2023-04-18T16:10:42.328Z,24.73
2023-04-18T16:13:11.089Z,23.60
2023-04-18T16:15:41.640Z,23.93
2023-04-18T16:18:11.952Z,21.00
2023-04-18T16:20:40.402Z,25.90
2023-04-18T16:23:09.018Z,23.97
2023-04-18T16:25:37.568Z,19.77
2023-04-18T16:28:06.252Z,19.43
2023-04-18T16:30:34.707Z,18.43
2023-04-18T16:33:03.929Z,17.17
2023-04-18T16:35:33.993Z,20.73
2023-04-18T16:38:02.422Z,18.13
2023-04-18T16:40:32.129Z,17.53
2023-04-18T16:43:00.691Z,18.47
2023-04-18T16:45:29.613Z,16.57
2023-04-18T16:47:58.582Z,20.67
2023-04-18T16:50:27.929Z,15.50
2023-04-18T16:52:57.874Z,13.87
2023-04-18T16:55:26.947Z,14.03
2023-04-18T16:57:55.692Z,14.13
2023-04-18T17:00:24.434Z,15.63
2023-04-18T17:02:53.283Z,16.00
2023-04-18T17:05:23.246Z,15.43
2023-04-18T17:07:51.763Z,16.53
2023-04-18T17:10:21.656Z,15.33
2023-04-18T17:12:50.177Z,15.90
2023-04-18T17:15:19.983Z,16.77
2023-04-18T17:17:48.696Z,15.70
2023-04-18T17:20:17.996Z,17.17
2023-04-18T17:22:46.572Z,16.87
2023-04-18T17:25:15.392Z,17.33
2023-04-18T17:27:45.946Z,17.07
2023-04-18T17:30:15.796Z,21.60
2023-04-18T17:32:46.129Z,20.00
2023-04-18T17:35:15.691Z,16.20
2023-04-18T17:37:44.096Z,16.90
2023-04-18T17:40:13.235Z,16.47
2023-04-18T17:42:41.673Z,16.50
2023-04-18T17:45:11.816Z,16.43
2023-04-18T17:47:41.358Z,37.10
2023-04-18T17:50:10.515Z,21.37
2023-04-18T17:52:39.660Z,16.33
2023-04-18T17:55:08.908Z,16.57
2023-04-18T17:57:37.421Z,17.57
2023-04-18T18:00:10.659Z,17.70
2023-04-18T18:02:42.912Z,17.73
2023-04-18T18:05:14.296Z,17.27
2023-04-18T18:07:47.495Z,16.97
2023-04-18T18:10:19.534Z,17.63
2023-04-18T18:12:47.975Z,19.23
2023-04-18T18:15:16.671Z,17.37
2023-04-18T18:17:48.854Z,18.10
2023-04-18T18:20:18.327Z,23.10
2023-04-18T18:22:47.384Z,18.43
2023-04-18T18:25:16.396Z,18.93
2023-04-18T18:27:44.849Z,16.97
2023-04-18T18:30:13.826Z,23.40
2023-04-18T18:32:42.395Z,17.23
2023-04-18T18:35:15.826Z,17.10
2023-04-18T18:37:44.523Z,19.83
2023-04-18T18:40:14.587Z,19.03
2023-04-18T18:42:49.568Z,18.00
2023-04-18T18:45:19.809Z,21.37
2023-04-18T18:47:49.025Z,17.73
2023-04-18T18:50:19.030Z,16.97
2023-04-18T18:52:47.626Z,20.33
2023-04-18T18:55:19.237Z,17.10
2023-04-18T18:57:48.336Z,17.80
2023-04-18T19:00:17.157Z,18.27
2023-04-18T19:02:46.191Z,19.07
2023-04-18T19:05:14.957Z,18.63
2023-04-18T19:07:44.965Z,18.00
2023-04-18T19:10:13.844Z,18.23
2023-04-18T19:12:43.236Z,20.90
2023-04-18T19:15:13.154Z,18.43
2023-04-18T19:17:41.853Z,18.03
2023-04-18T19:20:11.243Z,19.23
2023-04-18T19:22:40.037Z,17.50
2023-04-18T19:25:11.090Z,19.20
2023-04-18T19:27:39.624Z,20.07
2023-04-18T19:30:10.714Z,17.70
2023-04-18T19:32:39.408Z,21.93
2023-04-18T19:35:09.927Z,19.23
2023-04-18T19:37:38.377Z,18.10
2023-04-18T19:40:10.006Z,18.13
2023-04-18T19:42:38.644Z,18.17
2023-04-18T19:45:08.908Z,23.17
2023-04-18T19:47:38.141Z,22.67
2023-04-18T19:50:08.493Z,19.57
2023-04-18T19:52:37.226Z,19.83
2023-04-18T19:55:06.377Z,20.87
2023-04-18T19:57:41.312Z,17.93
2023-04-18T20:00:11.564Z,18.03
2023-04-18T20:02:46.455Z,17.80
2023-04-18T20:05:15.340Z,18.33
2023-04-18T20:07:43.873Z,19.63
2023-04-18T20:10:12.549Z,16.97
2023-04-18T20:12:42.564Z,17.27
2023-04-18T20:15:12.031Z,16.93
2023-04-18T20:17:40.734Z,17.80
2023-04-18T20:20:11.418Z,18.73
2023-04-18T20:22:40.587Z,18.37
2023-04-18T20:25:09.676Z,17.13
2023-04-18T20:27:38.258Z,17.30
2023-04-18T20:30:09.813Z,17.10
2023-04-18T20:32:38.699Z,18.30
2023-04-18T20:35:08.544Z,20.50
2023-04-18T20:37:37.110Z,18.83
2023-04-18T20:40:10.905Z,17.37
2023-04-18T20:42:39.942Z,19.23
2023-04-18T20:45:11.853Z,20.07
2023-04-18T20:47:41.462Z,20.40
2023-04-18T20:50:11.070Z,20.00
2023-04-18T20:52:42.900Z,19.87
2023-04-18T20:55:12.143Z,18.87
2023-04-18T20:57:40.919Z,21.67
2023-04-18T21:00:12.205Z,20.87
2023-04-18T21:02:41.398Z,20.63
2023-04-18T21:05:10.646Z,20.53
2023-04-18T21:07:39.218Z,18.67
2023-04-18T21:10:09.084Z,20.23
2023-04-18T21:12:37.644Z,20.67
2023-04-18T21:15:07.293Z,20.03
2023-04-18T21:17:37.319Z,19.20
2023-04-18T21:20:08.206Z,19.73
2023-04-18T21:22:37.072Z,17.37
2023-04-18T21:25:06.126Z,20.50
2023-04-18T21:27:34.713Z,18.57
2023-04-18T21:30:04.929Z,19.87
2023-04-18T21:32:33.789Z,19.50
2023-04-18T21:35:03.781Z,19.17
2023-04-18T21:37:32.789Z,19.50
2023-04-18T21:40:01.696Z,19.43
2023-04-18T21:42:30.562Z,20.33
2023-04-18T21:44:58.975Z,18.83
2023-04-18T21:47:27.379Z,24.63
2023-04-18T21:49:55.893Z,19.27
2023-04-18T21:52:25.956Z,18.53
2023-04-18T21:54:54.412Z,20.93
2023-04-18T21:57:23.316Z,19.50
2023-04-18T21:59:51.992Z,19.40
2023-04-18T22:02:20.473Z,19.10
2023-04-18T22:04:49.377Z,20.57
2023-04-18T22:07:18.885Z,21.43
2023-04-18T22:09:48.837Z,19.87
2023-04-18T22:12:17.458Z,22.77
2023-04-18T22:14:48.574Z,22.70
2023-04-18T22:17:17.107Z,20.53
2023-04-18T22:19:45.724Z,20.70
2023-04-18T22:22:14.192Z,20.60
2023-04-18T22:24:44.428Z,21.73
2023-04-18T22:27:15.444Z,19.50
2023-04-18T22:29:43.959Z,18.97
2023-04-18T22:32:12.364Z,19.70
2023-04-18T22:34:40.840Z,22.50
2023-04-18T22:37:09.561Z,21.93
2023-04-18T22:39:37.922Z,19.00
2023-04-18T22:42:06.442Z,19.17
2023-04-18T22:44:36.457Z,20.73
2023-04-18T22:47:05.108Z,20.47
2023-04-18T22:49:34.267Z,18.23
2023-04-18T22:52:02.678Z,18.03
2023-04-18T22:54:31.179Z,17.43
2023-04-18T22:56:59.659Z,19.67
2023-04-18T22:59:28.055Z,17.57
2023-04-18T23:01:58.206Z,20.47
2023-04-18T23:04:29.937Z,18.70
2023-04-18T23:06:58.734Z,18.53
2023-04-18T23:09:27.642Z,20.30
2023-04-18T23:11:56.701Z,16.43
2023-04-18T23:14:25.565Z,20.30
2023-04-18T23:16:54.912Z,17.27
2023-04-18T23:19:25.817Z,17.80
2023-04-18T23:21:54.405Z,18.47
2023-04-18T23:24:23.323Z,17.60
2023-04-18T23:26:51.722Z,18.70
2023-04-18T23:29:20.345Z,19.87
2023-04-18T23:31:48.969Z,18.80
2023-04-18T23:34:17.581Z,17.67
2023-04-18T23:36:47.454Z,19.43
2023-04-18T23:39:18.573Z,18.47
2023-04-18T23:41:47.030Z,19.07
2023-04-18T23:44:15.633Z,20.03
2023-04-18T23:46:44.275Z,21.53
2023-04-18T23:49:12.863Z,19.43
2023-04-18T23:51:41.251Z,18.63
2023-04-18T23:54:11.381Z,20.73
2023-04-18T23:56:39.721Z,21.60
2023-04-18T23:59:08.069Z,20.23
